createdAt,value
2023-05-17T00:04:33.425Z,100404.25
2023-05-17T00:09:32.184Z,100409.94
2023-05-17T00:14:31.342Z,100412.19
2023-05-17T00:19:31.482Z,100419.03
2023-05-17T00:24:30.248Z,100424.22
2023-05-17T00:29:28.996Z,100433.81
2023-05-17T00:34:27.805Z,100456.84
2023-05-17T00:39:27.940Z,100453.13
2023-05-17T00:44:26.692Z,100432.94
2023-05-17T00:49:25.515Z,100428.59
2023-05-17T00:54:24.555Z,100446.69
2023-05-17T00:59:24.901Z,100442.06
2023-05-17T01:04:23.767Z,100456.34
2023-05-17T01:09:22.696Z,100447.47
2023-05-17T01:14:38.296Z,100449.31
2023-05-17T01:19:56.285Z,100475.09
2023-05-17T01:25:09.310Z,100470.03
2023-05-17T01:30:13.285Z,100508.47
2023-05-17T01:35:13.277Z,100491.19
2023-05-17T01:40:12.600Z,100477.84
2023-05-17T01:45:19.562Z,100458.34
2023-05-17T01:50:23.876Z,100442.13
2023-05-17T01:55:28.097Z,100445.06
2023-05-17T02:00:31.048Z,100444.81
2023-05-17T02:05:30.128Z,100432.31
2023-05-17T02:10:29.181Z,100430.47
2023-05-17T02:15:29.994Z,100394.53
2023-05-17T02:20:28.851Z,100387.31
2023-05-17T02:25:27.999Z,100368.59
2023-05-17T02:30:27.094Z,100364.69
2023-05-17T02:35:27.309Z,100360.06
2023-05-17T02:40:26.287Z,100379.22
2023-05-17T02:45:25.094Z,100434.91
2023-05-17T02:50:23.841Z,100429.97
2023-05-17T02:55:24.041Z,100429.97
2023-05-17T03:00:22.918Z,100424.91
2023-05-17T03:05:21.795Z,100415.03
2023-05-17T03:10:24.546Z,100414.81
2023-05-17T03:15:23.502Z,100405.25
2023-05-17T03:20:22.447Z,100394.16
2023-05-17T03:25:21.812Z,100400.28
2023-05-17T03:35:22.577Z,100374.66
2023-05-17T03:40:26.160Z,100386.88
2023-05-17T03:45:28.755Z,100388.53
2023-05-17T03:50:35.183Z,100392.59
2023-05-17T03:55:34.515Z,100383.97
2023-05-17T04:00:34.798Z,100390.06
2023-05-17T04:05:41.349Z,100414.66
2023-05-17T04:10:43.069Z,100440.94
2023-05-17T04:15:43.489Z,100444.75
2023-05-17T04:20:42.406Z,100463.25
2023-05-17T04:25:42.360Z,100452.47
2023-05-17T04:30:45.236Z,100440.94
2023-05-17T04:35:46.831Z,100450.59
2023-05-17T04:40:45.858Z,100464.22
2023-05-17T04:45:46.991Z,100469.59
2023-05-17T04:50:47.206Z,100465.38
2023-05-17T04:55:48.292Z,100470.19
2023-05-17T05:00:50.594Z,100463.44
2023-05-17T05:05:49.901Z,100452.19
2023-05-17T05:10:49.302Z,100442.84
2023-05-17T05:15:51.103Z,100418.66
2023-05-17T05:20:50.524Z,100422.72
2023-05-17T05:25:50.352Z,100424.16
2023-05-17T05:30:51.375Z,100443.34
2023-05-17T05:35:51.769Z,100452.81
2023-05-17T05:40:50.577Z,100449.50
2023-05-17T05:45:50.911Z,100476.72
2023-05-17T05:50:50.579Z,100474.63
2023-05-17T05:55:49.681Z,100485.44
2023-05-17T06:00:50.451Z,100497.13
2023-05-17T06:05:49.359Z,100514.44
2023-05-17T06:10:48.222Z,100509.13
2023-05-17T06:15:46.990Z,100499.38
2023-05-17T06:20:47.711Z,100505.47
2023-05-17T06:25:46.470Z,100506.94
2023-05-17T06:30:45.348Z,100499.66
2023-05-17T06:35:55.579Z,100505.56
2023-05-17T06:40:58.631Z,100504.88
2023-05-17T06:45:57.456Z,100505.47
2023-05-17T06:50:56.368Z,100502.50
2023-05-17T06:55:55.272Z,100506.84
2023-05-17T07:00:55.580Z,100514.69
2023-05-17T07:05:54.415Z,100520.88
2023-05-17T07:10:53.546Z,100523.69
2023-05-17T07:15:52.504Z,100512.44
2023-05-17T07:20:53.758Z,100510.06
2023-05-17T07:25:52.621Z,100517.50
2023-05-17T07:30:52.006Z,100514.50
2023-05-17T07:35:52.104Z,100517.88
2023-05-17T07:40:50.900Z,100523.78
2023-05-17T07:45:49.789Z,100527.44
2023-05-17T07:50:53.000Z,100521.66
2023-05-17T07:55:52.199Z,100519.50
2023-05-17T08:00:50.939Z,100526.09
2023-05-17T08:05:49.701Z,100520.47
2023-05-17T08:10:49.975Z,100515.03
2023-05-17T08:15:50.073Z,100516.56
2023-05-17T08:20:50.606Z,100510.47
2023-05-17T08:25:50.743Z,100519.16
2023-05-17T08:30:49.448Z,100524.72
2023-05-17T08:36:41.759Z,100519.09
2023-05-17T08:41:49.426Z,100526.81
2023-05-17T08:46:52.468Z,100534.34
2023-05-17T08:51:52.179Z,100535.78
2023-05-17T08:56:54.692Z,100536.00
2023-05-17T09:01:55.390Z,100533.88
2023-05-17T09:06:54.291Z,100524.75
2023-05-17T09:11:54.415Z,100518.59
2023-05-17T09:16:58.455Z,100517.19
2023-05-17T09:21:57.935Z,100526.28
2023-05-17T09:27:03.421Z,100526.16
2023-05-17T09:32:14.612Z,100522.09
2023-05-17T09:37:17.925Z,100540.50
2023-05-17T09:42:18.593Z,100545.75
2023-05-17T09:47:27.674Z,100562.16
2023-05-17T09:52:27.109Z,100559.34
2023-05-17T09:57:30.007Z,100550.56
2023-05-17T10:02:33.264Z,100543.66
2023-05-17T10:07:36.116Z,100546.22
2023-05-17T10:12:38.777Z,100540.22
2023-05-17T10:17:43.933Z,100549.75
2023-05-17T10:22:44.535Z,100554.66
2023-05-17T10:27:45.169Z,100537.28
2023-05-17T10:32:45.272Z,100547.66
2023-05-17T10:37:44.235Z,100540.94
2023-05-17T10:42:47.920Z,100536.00
2023-05-17T10:47:47.394Z,100534.75
2023-05-17T10:52:50.789Z,100534.47
2023-05-17T10:58:22.591Z,100527.44
2023-05-17T11:03:22.759Z,100524.63
2023-05-17T11:08:21.813Z,100532.34
2023-05-17T11:13:28.611Z,100529.38
2023-05-17T11:18:30.720Z,100520.47
2023-05-17T11:23:35.570Z,100525.81
2023-05-17T11:28:36.009Z,100532.22
2023-05-17T11:33:43.246Z,100521.88
2023-05-17T11:38:42.534Z,100527.34
2023-05-17T11:43:49.230Z,100522.59
2023-05-17T11:48:50.310Z,100522.38
2023-05-17T11:53:49.470Z,100518.41
2023-05-17T11:58:52.966Z,100501.00
2023-05-17T12:03:59.315Z,100504.53
2023-05-17T12:08:58.048Z,100500.63
2023-05-17T12:13:58.859Z,100474.63
2023-05-17T12:18:58.765Z,100471.25
2023-05-17T12:23:57.838Z,100470.53
2023-05-17T12:28:59.065Z,100465.34
2023-05-17T12:33:59.435Z,100459.88
2023-05-17T12:38:58.902Z,100460.78
2023-05-17T12:44:13.752Z,100451.19
2023-05-17T12:49:13.991Z,100453.53
2023-05-17T12:54:16.413Z,100450.78
2023-05-17T12:59:22.086Z,100452.31
2023-05-17T13:04:23.253Z,100452.75
2023-05-17T13:09:26.398Z,100448.09
2023-05-17T13:14:48.401Z,100446.38
2023-05-17T13:19:47.381Z,100442.47
2023-05-17T13:24:49.150Z,100452.69
2023-05-17T13:29:49.529Z,100445.84
2023-05-17T13:34:48.533Z,100443.53
2023-05-17T13:39:47.512Z,100443.44
2023-05-17T13:44:46.313Z,100440.16
2023-05-17T13:49:46.455Z,100443.59
2023-05-17T13:54:45.774Z,100440.78
2023-05-17T13:59:46.018Z,100444.13
2023-05-17T14:04:46.195Z,100436.06
2023-05-17T14:09:45.003Z,100431.53
2023-05-17T14:14:43.828Z,100442.47
2023-05-17T14:19:42.982Z,100430.78
2023-05-17T14:24:43.195Z,100419.75
2023-05-17T14:29:42.013Z,100427.84
2023-05-17T14:34:41.009Z,100431.19
2023-05-17T14:39:39.818Z,100426.78
2023-05-17T14:44:39.981Z,100434.16
2023-05-17T14:49:38.815Z,100418.53
2023-05-17T14:54:37.702Z,100417.47
2023-05-17T14:59:38.039Z,100407.41
2023-05-17T15:04:38.327Z,100392.78
2023-05-17T15:09:41.925Z,100385.75
2023-05-17T15:14:40.809Z,100376.50
2023-05-17T15:19:41.470Z,100376.59
2023-05-17T15:24:40.465Z,100367.38
2023-05-17T15:29:40.905Z,100367.53
2023-05-17T15:34:41.382Z,100376.88
2023-05-17T15:39:40.337Z,100377.03
2023-05-17T15:44:39.172Z,100376.53
2023-05-17T15:49:37.888Z,100383.06
2023-05-17T15:54:38.151Z,100389.13
2023-05-17T15:59:37.231Z,100394.31
2023-05-17T16:04:36.091Z,100401.16
2023-05-17T16:09:34.829Z,100395.53
2023-05-17T16:14:35.912Z,100410.41
2023-05-17T16:19:35.074Z,100410.13
2023-05-17T16:24:34.335Z,100407.28
2023-05-17T16:29:40.284Z,100408.28
2023-05-17T16:34:39.204Z,100414.47
2023-05-17T16:39:40.629Z,100422.50
2023-05-17T16:44:43.694Z,100421.13
2023-05-17T16:49:45.553Z,100417.09
2023-05-17T16:54:48.397Z,100430.94
2023-05-17T16:59:50.604Z,100429.06
2023-05-17T17:04:50.473Z,100438.03
2023-05-17T17:09:50.251Z,100447.44
2023-05-17T17:14:50.657Z,100439.31
2023-05-17T17:19:50.387Z,100446.13
2023-05-17T17:24:49.649Z,100441.56
2023-05-17T17:29:50.277Z,100442.44
2023-05-17T17:34:49.124Z,100441.81
2023-05-17T17:39:51.266Z,100441.19
2023-05-17T17:44:52.137Z,100460.22
2023-05-17T17:49:51.746Z,100474.31
2023-05-17T17:54:50.549Z,100483.94
2023-05-17T17:59:49.345Z,100495.38
2023-05-17T18:04:49.725Z,100489.47
2023-05-17T18:09:48.772Z,100499.72
2023-05-17T18:14:47.585Z,100500.47
2023-05-17T18:19:48.549Z,100498.84
2023-05-17T18:24:49.532Z,100503.47
2023-05-17T18:29:48.319Z,100514.47
2023-05-17T18:34:47.096Z,100520.91
2023-05-17T18:39:45.868Z,100521.06
2023-05-17T18:44:46.541Z,100515.91
2023-05-17T18:49:47.144Z,100519.44
2023-05-17T18:54:47.644Z,100530.81
2023-05-17T18:59:47.849Z,100525.03
2023-05-17T19:04:46.641Z,100543.75
2023-05-17T19:09:46.127Z,100544.56
2023-05-17T19:14:44.986Z,100540.72
2023-05-17T19:19:45.250Z,100547.88
2023-05-17T19:24:44.222Z,100550.09
2023-05-17T19:29:43.069Z,100538.38
2023-05-17T19:34:41.845Z,100549.00
2023-05-17T19:39:42.061Z,100553.78
2023-05-17T19:44:40.774Z,100536.22
2023-05-17T19:49:40.325Z,100539.94
2023-05-17T19:54:39.223Z,100539.53
2023-05-17T19:59:42.034Z,100532.69
2023-05-17T20:04:43.634Z,100521.81
2023-05-17T20:09:42.789Z,100520.97
2023-05-17T20:14:43.151Z,100529.31
2023-05-17T20:19:42.011Z,100528.25
2023-05-17T20:24:42.599Z,100522.19
2023-05-17T20:29:43.014Z,100518.50
2023-05-17T20:34:41.957Z,100510.72
2023-05-17T20:39:41.020Z,100514.03
2023-05-17T20:44:40.384Z,100519.97
2023-05-17T20:49:40.663Z,100523.59
2023-05-17T20:54:39.464Z,100521.47
2023-05-17T20:59:38.250Z,100525.34
2023-05-17T21:04:37.707Z,100524.03
2023-05-17T21:09:38.064Z,100525.91
2023-05-17T21:14:36.867Z,100529.75
2023-05-17T21:19:35.684Z,100526.63
2023-05-17T21:24:34.513Z,100528.81
2023-05-17T21:29:34.630Z,100533.50
2023-05-17T21:34:33.328Z,100514.34
2023-05-17T21:39:32.057Z,100517.63
2023-05-17T21:44:30.770Z,100509.97
2023-05-17T21:49:30.845Z,100514.44
2023-05-17T21:54:29.621Z,100516.03
2023-05-17T21:59:28.398Z,100508.53
2023-05-17T22:04:27.351Z,100523.91
2023-05-17T22:09:28.180Z,100516.91
2023-05-17T22:14:27.120Z,100525.75
2023-05-17T22:19:25.881Z,100527.56
2023-05-17T22:24:24.578Z,100524.03
2023-05-17T22:29:24.678Z,100520.78
2023-05-17T22:34:23.361Z,100514.75
2023-05-17T22:39:22.064Z,100510.16
2023-05-17T22:44:22.066Z,100513.00
2023-05-17T22:49:22.215Z,100508.59
2023-05-17T22:54:21.293Z,100499.66
2023-05-17T22:59:19.979Z,100482.25
2023-05-17T23:04:20.915Z,100486.84
2023-05-17T23:09:21.934Z,100491.47
2023-05-17T23:14:21.921Z,100465.81
2023-05-17T23:19:20.989Z,100473.09
2023-05-17T23:24:23.371Z,100471.28
2023-05-17T23:29:22.160Z,100483.88
2023-05-17T23:34:21.107Z,100488.34
2023-05-17T23:39:21.230Z,100484.72
2023-05-17T23:44:19.932Z,100487.88
2023-05-17T23:49:19.603Z,100498.66
2023-05-17T23:54:18.410Z,100494.47
2023-05-17T23:59:18.484Z,100500.53
